EWG7MS EDDS-EDDH
Flight info
| Callsign | EWG7MS |
|---|---|
| Flight time | N/A |
| Altitude | 38000 |
| Route | OKIBA4B/25 OKIBA N851 RIMKI Z99 LOHRE DCT MASEK DCT ELNAT/N0426F360 P605 NOLGO NOLG3P EDDH/23 |
| Aircraft | A320/M-V/N |
Departure
| Time | N/A |
|---|---|
| Airport | Stuttgart Airport (EDDS) |
Arrival
| Time | 2026-05-03 20:23 |
|---|---|
| Airport | Hamburg Helmut Schmidt Airport (EDDH) |
| Time | Latitude | Longitude | Altitude | Speed | Heading |
|---|---|---|---|---|---|
| 2026-05-03 20:15 | 53.82082 | 10.37482 | 4498 ft | 195 kts | 230° |
| 2026-05-03 20:15 | 53.81230 | 10.35755 | 4341 ft | 188 kts | 230° |
| 2026-05-03 20:15 | 53.80404 | 10.34100 | 4190 ft | 180 kts | 230° |
| 2026-05-03 20:15 | 53.79621 | 10.32540 | 4072 ft | 168 kts | 229° |
| 2026-05-03 20:16 | 53.78875 | 10.31082 | 3905 ft | 159 kts | 230° |
| 2026-05-03 20:16 | 53.78184 | 10.29692 | 3790 ft | 148 kts | 231° |
| 2026-05-03 20:16 | 53.77571 | 10.28447 | 3632 ft | 141 kts | 231° |
| 2026-05-03 20:16 | 53.76987 | 10.27256 | 3543 ft | 123 kts | 231° |
| 2026-05-03 20:17 | 53.76459 | 10.26176 | 3444 ft | 117 kts | 231° |
| 2026-05-03 20:17 | 53.75942 | 10.25116 | 3347 ft | 117 kts | 232° |
| 2026-05-03 20:17 | 53.75414 | 10.24036 | 3247 ft | 118 kts | 232° |
| 2026-05-03 20:17 | 53.74901 | 10.22987 | 3154 ft | 117 kts | 233° |
| 2026-05-03 20:18 | 53.74388 | 10.21939 | 3091 ft | 115 kts | 232° |
| 2026-05-03 20:18 | 53.73876 | 10.20891 | 3060 ft | 114 kts | 232° |
| 2026-05-03 20:18 | 53.73363 | 10.19840 | 2999 ft | 127 kts | 232° |
| 2026-05-03 20:18 | 53.72742 | 10.18575 | 2886 ft | 148 kts | 231° |
| 2026-05-03 20:19 | 53.72070 | 10.17217 | 2679 ft | 152 kts | 232° |
| 2026-05-03 20:19 | 53.71394 | 10.15832 | 2491 ft | 153 kts | 232° |
| 2026-05-03 20:19 | 53.70717 | 10.14447 | 2241 ft | 153 kts | 232° |
| 2026-05-03 20:19 | 53.70042 | 10.13070 | 1997 ft | 152 kts | 233° |
| 2026-05-03 20:20 | 53.69367 | 10.11698 | 1843 ft | 153 kts | 232° |
| 2026-05-03 20:20 | 53.68918 | 10.10788 | 1701 ft | 152 kts | 231° |
| 2026-05-03 20:20 | 53.68063 | 10.09066 | 1427 ft | 131 kts | 232° |
| 2026-05-03 20:20 | 53.67689 | 10.08300 | 1289 ft | 125 kts | 233° |
| 2026-05-03 20:21 | 53.67159 | 10.07204 | 1129 ft | 118 kts | 233° |
| 2026-05-03 20:21 | 53.66636 | 10.06130 | 983 ft | 119 kts | 233° |
| 2026-05-03 20:21 | 53.66112 | 10.05042 | 874 ft | 121 kts | 232° |
| 2026-05-03 20:21 | 53.65577 | 10.03963 | 706 ft | 120 kts | 229° |
| 2026-05-03 20:22 | 53.65039 | 10.02886 | 508 ft | 124 kts | 230° |
| 2026-05-03 20:22 | 53.64491 | 10.01761 | 371 ft | 125 kts | 231° |
| 2026-05-03 20:22 | 53.63934 | 10.00631 | 205 ft | 126 kts | 230° |
| 2026-05-03 20:22 | 53.63377 | 9.99504 | 59 ft | 124 kts | 230° |
| 2026-05-03 20:23 | 53.62929 | 9.98605 | 49 ft | 59 kts | 230° |
| 2026-05-03 20:23 | 53.62780 | 9.98360 | 50 ft | 23 kts | 191° |
| 2026-05-03 20:23 | 53.62700 | 9.98420 | 51 ft | 0 kts | 139° |
| 2026-05-03 20:24 | 53.62696 | 9.98426 | 51 ft | 1 kts | 139° |
| 2026-05-03 20:24 | 53.62694 | 9.98428 | 51 ft | 0 kts | 139° |
| 2026-05-03 20:25 | 53.62675 | 9.98465 | 51 ft | 14 kts | 121° |
| 2026-05-03 20:25 | 53.62708 | 9.98591 | 51 ft | 12 kts | 49° |
| 2026-05-03 20:25 | 53.62775 | 9.98724 | 50 ft | 15 kts | 51° |
| 2026-05-03 20:25 | 53.62858 | 9.98895 | 50 ft | 24 kts | 49° |
| 2026-05-03 20:26 | 53.62969 | 9.99117 | 50 ft | 24 kts | 50° |
| 2026-05-03 20:26 | 53.63072 | 9.99337 | 50 ft | 24 kts | 54° |
| 2026-05-03 20:26 | 53.63168 | 9.99560 | 49 ft | 23 kts | 51° |
| 2026-05-03 20:26 | 53.63231 | 9.99723 | 50 ft | 11 kts | 110° |
| 2026-05-03 20:27 | 53.63165 | 9.99812 | 49 ft | 14 kts | 156° |
| 2026-05-03 20:27 | 53.63099 | 9.99867 | 50 ft | 8 kts | 152° |
| 2026-05-03 20:27 | 53.63052 | 9.99910 | 51 ft | 7 kts | 151° |
| 2026-05-03 20:27 | 53.63012 | 9.99948 | 51 ft | 6 kts | 151° |
| 2026-05-03 20:28 | 53.62976 | 9.99979 | 50 ft | 5 kts | 152° |
| 2026-05-03 20:28 | 53.62946 | 10.00038 | 48 ft | 12 kts | 113° |
| 2026-05-03 20:28 | 53.62910 | 10.00164 | 50 ft | 10 kts | 123° |
| 2026-05-03 20:28 | 53.62893 | 10.00210 | 51 ft | 0 kts | 122° |
| 2026-05-03 20:29 | 53.62892 | 10.00213 | 51 ft | 0 kts | 122° |